Time;durP1;ratioP1;P1;durP2;ratioP2;P2;SDS_P1;SDS_P2;PMS_P1;PMS_P2;Temp;Humidity;BMP_temperature;BMP_pressure;BME280_temperature;BME280_humidity;BME280_pressure;Samples;Min_cycle;Max_cycle;Signal;HPM_P1;HPM_P2
2023/02/09 00:00:02;;;;;;;4.2;4.1;;;;;;;-0.9;100.0;102990;;;;
2023/02/09 00:01:03;;;;;;;4.2;4.1;;;;;;;-1.0;100.0;102980;;;;
2023/02/09 00:02:00;;;;;;;4.2;4.1;;;;;;;-1.0;100.0;102980;;;;
2023/02/09 00:03:00;;;;;;;4.2;4.1;;;;;;;-1.0;100.0;102980;;;;
2023/02/09 00:04:01;;;;;;;4.2;4.1;;;;;;;-1.0;100.0;102980;;;;
2023/02/09 00:05:00;;;;;;;4.2;4.1;;;;;;;-1.0;100.0;102980;;;;
2023/02/09 00:06:01;;;;;;;4.2;4.1;;;;;;;-1.0;100.0;102980;;;;
2023/02/09 00:07:01;;;;;;;3.6;3.5;;;;;;;-0.9;100.0;102980;;;;
2023/02/09 00:08:00;;;;;;;3.6;3.5;;;;;;;-0.9;100.0;102980;;;;
2023/02/09 00:09:01;;;;;;;3.6;3.5;;;;;;;-1.0;100.0;102980;;;;
2023/02/09 00:10:00;;;;;;;3.6;3.5;;;;;;;-1.0;100.0;102980;;;;
2023/02/09 00:11:04;;;;;;;3.6;3.5;;;;;;;-1.0;100.0;102980;;;;
2023/02/09 00:14:00;;;;;;;3.6;3.5;;;;;;;-1.0;100.0;102980;;;;
2023/02/09 00:15:00;;;;;;;3.6;3.5;;;;;;;-1.1;100.0;102990;;;;
2023/02/09 00:16:01;;;;;;;3.6;3.5;;;;;;;-1.1;100.0;102990;;;;
2023/02/09 00:17:01;;;;;;;3.6;3.5;;;;;;;-1.1;100.0;102990;;;;
2023/02/09 00:18:00;;;;;;;3.6;3.5;;;;;;;-1.1;100.0;102990;;;;
2023/02/09 00:19:00;;;;;;;3.6;3.5;;;;;;;-1.1;100.0;102990;;;;
2023/02/09 00:20:01;;;;;;;3.6;3.5;;;;;;;-1.1;100.0;102990;;;;
2023/02/09 00:21:02;;;;;;;3.6;3.5;;;;;;;-1.1;100.0;102990;;;;
2023/02/09 00:22:00;;;;;;;3.6;3.5;;;;;;;-1.1;100.0;102990;;;;
2023/02/09 00:23:00;;;;;;;3.6;3.5;;;;;;;-1.1;100.0;102980;;;;
2023/02/09 00:24:00;;;;;;;3.6;3.5;;;;;;;-1.1;100.0;102980;;;;
2023/02/09 00:25:00;;;;;;;3.6;3.5;;;;;;;-1.2;100.0;102990;;;;
2023/02/09 00:26:01;;;;;;;3.6;3.5;;;;;;;-1.2;100.0;102990;;;;
2023/02/09 00:27:00;;;;;;;3.9;3.8;;;;;;;-1.2;100.0;102980;;;;
2023/02/09 00:28:00;;;;;;;3.9;3.8;;;;;;;-1.2;100.0;102980;;;;
2023/02/09 00:29:01;;;;;;;3.9;3.8;;;;;;;-1.2;100.0;102980;;;;
2023/02/09 00:30:00;;;;;;;3.9;3.8;;;;;;;-1.2;100.0;102980;;;;
2023/02/09 00:31:04;;;;;;;3.9;3.8;;;;;;;-1.2;100.0;102980;;;;
2023/02/09 00:32:01;;;;;;;3.9;3.8;;;;;;;-1.2;100.0;102980;;;;
2023/02/09 00:33:00;;;;;;;3.9;3.8;;;;;;;-1.2;100.0;102980;;;;
2023/02/09 00:34:01;;;;;;;3.9;3.8;;;;;;;-1.2;100.0;102980;;;;
2023/02/09 00:35:00;;;;;;;3.9;3.8;;;;;;;-1.2;100.0;102990;;;;
2023/02/09 00:36:02;;;;;;;3.9;3.8;;;;;;;-1.2;100.0;102990;;;;
2023/02/09 00:37:00;;;;;;;3.9;3.8;;;;;;;-1.2;100.0;102990;;;;
2023/02/09 00:38:00;;;;;;;3.9;3.8;;;;;;;-1.2;100.0;102990;;;;
2023/02/09 00:39:00;;;;;;;3.9;3.8;;;;;;;-1.2;100.0;102990;;;;
2023/02/09 00:40:00;;;;;;;3.9;3.8;;;;;;;-1.2;100.0;102990;;;;
2023/02/09 00:41:00;;;;;;;3.9;3.8;;;;;;;-1.2;100.0;102990;;;;
2023/02/09 00:42:09;;;;;;;3.9;3.8;;;;;;;-1.2;100.0;102990;;;;
2023/02/09 00:43:00;;;;;;;3.9;3.8;;;;;;;-1.2;100.0;103000;;;;
2023/02/09 00:44:00;;;;;;;3.9;3.8;;;;;;;-1.2;100.0;103000;;;;
2023/02/09 00:45:00;;;;;;;3.9;3.8;;;;;;;-1.3;100.0;103000;;;;
2023/02/09 00:46:01;;;;;;;3.9;3.8;;;;;;;-1.3;100.0;103000;;;;
2023/02/09 00:47:01;;;;;;;3.8;3.7;;;;;;;-1.3;100.0;103000;;;;
2023/02/09 00:48:01;;;;;;;3.8;3.7;;;;;;;-1.3;100.0;103000;;;;
2023/02/09 00:49:00;;;;;;;3.8;3.7;;;;;;;-1.2;100.0;102990;;;;
2023/02/09 00:50:00;;;;;;;3.8;3.7;;;;;;;-1.2;100.0;102990;;;;
2023/02/09 00:51:01;;;;;;;3.8;3.7;;;;;;;-1.3;100.0;102990;;;;
2023/02/09 00:52:00;;;;;;;3.8;3.7;;;;;;;-1.3;100.0;102990;;;;
2023/02/09 00:53:00;;;;;;;3.8;3.7;;;;;;;-1.3;100.0;103000;;;;
2023/02/09 00:54:00;;;;;;;3.8;3.7;;;;;;;-1.3;100.0;103000;;;;
2023/02/09 00:55:00;;;;;;;3.8;3.7;;;;;;;-1.3;100.0;103000;;;;
2023/02/09 00:56:00;;;;;;;3.8;3.7;;;;;;;-1.3;100.0;103000;;;;
2023/02/09 00:57:04;;;;;;;3.8;3.7;;;;;;;-1.3;100.0;103000;;;;
2023/02/09 00:58:00;;;;;;;3.8;3.7;;;;;;;-1.3;100.0;103000;;;;
2023/02/09 00:59:00;;;;;;;3.8;3.7;;;;;;;-1.3;100.0;103000;;;;
2023/02/09 01:00:01;;;;;;;3.8;3.7;;;;;;;-1.3;100.0;103000;;;;
2023/02/09 01:01:00;;;;;;;3.8;3.7;;;;;;;-1.3;100.0;102990;;;;
2023/02/09 01:02:00;;;;;;;3.8;3.7;;;;;;;-1.3;100.0;102990;;;;
2023/02/09 01:03:00;;;;;;;3.8;3.7;;;;;;;-1.3;100.0;102990;;;;
2023/02/09 01:04:00;;;;;;;3.8;3.7;;;;;;;-1.3;100.0;102990;;;;
2023/02/09 01:05:01;;;;;;;3.8;3.7;;;;;;;-1.4;100.0;102980;;;;
2023/02/09 01:06:00;;;;;;;3.8;3.7;;;;;;;-1.4;100.0;102980;;;;
2023/02/09 01:07:00;;;;;;;4.1;4.0;;;;;;;-1.4;100.0;102990;;;;
2023/02/09 01:08:00;;;;;;;4.1;4.0;;;;;;;-1.4;100.0;102990;;;;
2023/02/09 01:09:00;;;;;;;4.1;4.0;;;;;;;-1.5;100.0;102980;;;;
2023/02/09 01:10:01;;;;;;;4.1;4.0;;;;;;;-1.5;100.0;102980;;;;
2023/02/09 01:11:06;;;;;;;4.1;4.0;;;;;;;-1.4;100.0;102990;;;;
2023/02/09 01:12:00;;;;;;;4.1;4.0;;;;;;;-1.4;100.0;102990;;;;
2023/02/09 01:13:00;;;;;;;4.1;4.0;;;;;;;-1.4;100.0;102990;;;;
2023/02/09 01:14:03;;;;;;;4.1;4.0;;;;;;;-1.4;100.0;102990;;;;
2023/02/09 01:15:01;;;;;;;4.1;4.0;;;;;;;-1.4;100.0;102990;;;;
2023/02/09 01:16:04;;;;;;;4.1;4.0;;;;;;;-1.4;100.0;102990;;;;
2023/02/09 01:17:00;;;;;;;4.1;4.0;;;;;;;-1.4;100.0;102990;;;;
2023/02/09 01:18:00;;;;;;;4.1;4.0;;;;;;;-1.4;100.0;102990;;;;
2023/02/09 01:19:01;;;;;;;4.1;4.0;;;;;;;-1.4;100.0;102990;;;;
2023/02/09 01:20:00;;;;;;;4.1;4.0;;;;;;;-1.4;100.0;102990;;;;
2023/02/09 01:21:00;;;;;;;4.1;4.0;;;;;;;-1.4;100.0;102990;;;;
2023/02/09 01:22:00;;;;;;;4.1;4.0;;;;;;;-1.4;100.0;102990;;;;
2023/02/09 01:23:00;;;;;;;4.1;4.0;;;;;;;-1.4;100.0;102980;;;;
2023/02/09 01:24:00;;;;;;;4.1;4.0;;;;;;;-1.4;100.0;102980;;;;
2023/02/09 01:25:00;;;;;;;4.1;4.0;;;;;;;-1.5;100.0;102990;;;;
2023/02/09 01:26:01;;;;;;;4.1;4.0;;;;;;;-1.5;100.0;102990;;;;
2023/02/09 01:27:01;;;;;;;4.4;4.3;;;;;;;-1.4;100.0;102980;;;;
2023/02/09 01:28:00;;;;;;;4.4;4.3;;;;;;;-1.4;100.0;102980;;;;
2023/02/09 01:29:00;;;;;;;4.4;4.3;;;;;;;-1.5;100.0;102990;;;;
2023/02/09 01:30:00;;;;;;;4.4;4.3;;;;;;;-1.5;100.0;102990;;;;
2023/02/09 01:31:00;;;;;;;4.4;4.3;;;;;;;-1.5;100.0;102990;;;;
2023/02/09 01:32:00;;;;;;;4.4;4.3;;;;;;;-1.5;100.0;102990;;;;
2023/02/09 01:33:00;;;;;;;4.4;4.3;;;;;;;-1.5;100.0;102980;;;;
2023/02/09 01:34:02;;;;;;;4.4;4.3;;;;;;;-1.5;100.0;102980;;;;
2023/02/09 01:35:00;;;;;;;4.4;4.3;;;;;;;-1.5;100.0;102980;;;;
2023/02/09 01:36:04;;;;;;;4.4;4.3;;;;;;;-1.5;100.0;102980;;;;
2023/02/09 01:37:00;;;;;;;4.4;4.3;;;;;;;-1.5;100.0;102980;;;;
2023/02/09 01:38:00;;;;;;;4.4;4.3;;;;;;;-1.5;100.0;102980;;;;
2023/02/09 01:39:02;;;;;;;4.4;4.3;;;;;;;-1.5;100.0;102990;;;;
2023/02/09 01:40:00;;;;;;;4.4;4.3;;;;;;;-1.5;100.0;102990;;;;
2023/02/09 01:41:00;;;;;;;4.4;4.3;;;;;;;-1.6;100.0;102990;;;;
2023/02/09 01:42:00;;;;;;;4.4;4.3;;;;;;;-1.6;100.0;102990;;;;
2023/02/09 01:43:00;;;;;;;4.4;4.3;;;;;;;-1.5;100.0;102990;;;;
2023/02/09 01:44:02;;;;;;;4.4;4.3;;;;;;;-1.5;100.0;102990;;;;
2023/02/09 01:45:10;;;;;;;4.4;4.3;;;;;;;-1.6;100.0;102990;;;;
2023/02/09 01:46:00;;;;;;;4.1;4.0;;;;;;;-1.6;100.0;102990;;;;
2023/02/09 01:47:00;;;;;;;4.1;4.0;;;;;;;-1.6;100.0;102990;;;;
2023/02/09 01:48:02;;;;;;;4.1;4.0;;;;;;;-1.6;100.0;102990;;;;
2023/02/09 01:49:04;;;;;;;4.1;4.0;;;;;;;-1.6;100.0;102990;;;;
2023/02/09 01:50:01;;;;;;;4.1;4.0;;;;;;;-1.6;100.0;102990;;;;
2023/02/09 01:51:00;;;;;;;4.1;4.0;;;;;;;-1.6;100.0;102990;;;;
2023/02/09 01:52:03;;;;;;;4.1;4.0;;;;;;;-1.6;100.0;102990;;;;
2023/02/09 01:53:01;;;;;;;4.1;4.0;;;;;;;-1.7;100.0;102980;;;;
2023/02/09 01:54:03;;;;;;;4.1;4.0;;;;;;;-1.7;100.0;102980;;;;
2023/02/09 01:55:04;;;;;;;4.1;4.0;;;;;;;-1.7;100.0;102980;;;;
2023/02/09 01:56:06;;;;;;;4.1;4.0;;;;;;;-1.7;100.0;102980;;;;
2023/02/09 01:57:05;;;;;;;4.1;4.0;;;;;;;-1.7;100.0;102980;;;;
2023/02/09 01:58:05;;;;;;;4.1;4.0;;;;;;;-1.7;100.0;102980;;;;
2023/02/09 01:59:00;;;;;;;4.1;4.0;;;;;;;-1.8;100.0;102980;;;;
2023/02/09 02:00:06;;;;;;;4.1;4.0;;;;;;;-1.8;100.0;102980;;;;
2023/02/09 02:01:01;;;;;;;4.1;4.0;;;;;;;-1.8;100.0;102980;;;;
2023/02/09 02:02:01;;;;;;;4.1;4.0;;;;;;;-1.8;100.0;102980;;;;
2023/02/09 02:03:02;;;;;;;4.1;4.0;;;;;;;-1.8;100.0;102980;;;;
2023/02/09 02:04:01;;;;;;;4.1;4.0;;;;;;;-1.8;100.0;102980;;;;
2023/02/09 02:05:01;;;;;;;4.1;4.0;;;;;;;-1.8;100.0;102980;;;;
2023/02/09 02:06:04;;;;;;;4.6;4.5;;;;;;;-1.8;100.0;102980;;;;
2023/02/09 02:07:05;;;;;;;4.6;4.5;;;;;;;-1.8;100.0;102970;;;;
2023/02/09 02:08:04;;;;;;;4.6;4.5;;;;;;;-1.8;100.0;102970;;;;
2023/02/09 02:09:04;;;;;;;4.6;4.5;;;;;;;-1.8;100.0;102970;;;;
2023/02/09 02:10:01;;;;;;;4.6;4.5;;;;;;;-1.8;100.0;102970;;;;
2023/02/09 02:11:01;;;;;;;4.6;4.5;;;;;;;-1.9;100.0;102970;;;;
2023/02/09 02:12:01;;;;;;;4.6;4.5;;;;;;;-1.9;100.0;102970;;;;
2023/02/09 02:13:01;;;;;;;4.6;4.5;;;;;;;-1.9;100.0;102970;;;;
2023/02/09 02:14:00;;;;;;;4.6;4.5;;;;;;;-1.9;100.0;102970;;;;
2023/02/09 02:15:00;;;;;;;4.6;4.5;;;;;;;-1.8;100.0;102970;;;;
2023/02/09 02:16:10;;;;;;;4.6;4.5;;;;;;;-1.8;100.0;102970;;;;
2023/02/09 02:17:01;;;;;;;4.6;4.5;;;;;;;-1.8;100.0;102970;;;;
2023/02/09 02:18:03;;;;;;;4.6;4.5;;;;;;;-1.8;100.0;102970;;;;
2023/02/09 02:19:00;;;;;;;4.6;4.5;;;;;;;-1.9;100.0;102960;;;;
2023/02/09 02:20:10;;;;;;;4.6;4.5;;;;;;;-1.9;100.0;102960;;;;
2023/02/09 02:21:10;;;;;;;4.6;4.5;;;;;;;-1.9;100.0;102960;;;;
2023/02/09 02:22:04;;;;;;;4.6;4.5;;;;;;;-1.9;100.0;102960;;;;
2023/02/09 02:23:10;;;;;;;4.6;4.5;;;;;;;-1.8;100.0;102960;;;;
2023/02/09 02:24:10;;;;;;;4.6;4.5;;;;;;;-1.8;100.0;102960;;;;
2023/02/09 02:25:10;;;;;;;4.6;4.5;;;;;;;-1.9;100.0;102960;;;;
2023/02/09 02:26:10;;;;;;;4.0;3.9;;;;;;;-1.9;100.0;102960;;;;
2023/02/09 02:27:03;;;;;;;4.0;3.9;;;;;;;-1.9;100.0;102960;;;;
2023/02/09 02:28:10;;;;;;;4.0;3.9;;;;;;;-1.9;100.0;102960;;;;
2023/02/09 02:29:10;;;;;;;4.0;3.9;;;;;;;-1.9;100.0;102960;;;;
2023/02/09 02:30:12;;;;;;;4.0;3.9;;;;;;;-1.9;100.0;102960;;;;
2023/02/09 02:31:10;;;;;;;4.0;3.9;;;;;;;-1.9;100.0;102960;;;;
2023/02/09 02:32:09;;;;;;;4.0;3.9;;;;;;;-1.9;100.0;102960;;;;
2023/02/09 02:33:10;;;;;;;4.0;3.9;;;;;;;-1.9;100.0;102960;;;;
2023/02/09 02:34:07;;;;;;;4.0;3.9;;;;;;;-1.9;100.0;102960;;;;
2023/02/09 02:35:03;;;;;;;4.0;3.9;;;;;;;-2.0;100.0;102950;;;;
2023/02/09 02:36:10;;;;;;;4.0;3.9;;;;;;;-2.0;100.0;102950;;;;
2023/02/09 02:37:10;;;;;;;4.0;3.9;;;;;;;-1.9;100.0;102950;;;;
2023/02/09 02:38:10;;;;;;;4.0;3.9;;;;;;;-1.9;100.0;102950;;;;
2023/02/09 02:39:05;;;;;;;4.0;3.9;;;;;;;-1.9;100.0;102940;;;;
2023/02/09 02:40:10;;;;;;;4.0;3.9;;;;;;;-1.9;100.0;102940;;;;
2023/02/09 02:41:01;;;;;;;4.0;3.9;;;;;;;-2.0;100.0;102940;;;;
2023/02/09 02:43:08;;;;;;;4.0;3.9;;;;;;;-2.0;100.0;102940;;;;
2023/02/09 02:44:04;;;;;;;4.0;3.9;;;;;;;-2.0;100.0;102940;;;;
2023/02/09 02:45:06;;;;;;;4.0;3.9;;;;;;;-2.0;100.0;102940;;;;
2023/02/09 02:46:03;;;;;;;4.1;4.0;;;;;;;-2.0;100.0;102940;;;;
2023/02/09 02:47:02;;;;;;;4.1;4.0;;;;;;;-1.9;100.0;102940;;;;
2023/02/09 02:48:10;;;;;;;4.1;4.0;;;;;;;-1.9;100.0;102940;;;;
2023/02/09 02:49:04;;;;;;;4.1;4.0;;;;;;;-2.0;100.0;102930;;;;
2023/02/09 02:50:05;;;;;;;4.1;4.0;;;;;;;-2.0;100.0;102930;;;;
2023/02/09 02:51:00;;;;;;;4.1;4.0;;;;;;;-2.0;100.0;102930;;;;
2023/02/09 02:52:03;;;;;;;4.1;4.0;;;;;;;-2.0;100.0;102930;;;;
2023/02/09 02:53:03;;;;;;;4.1;4.0;;;;;;;-2.0;100.0;102930;;;;
2023/02/09 02:54:03;;;;;;;4.1;4.0;;;;;;;-2.0;100.0;102930;;;;
2023/02/09 02:55:05;;;;;;;4.1;4.0;;;;;;;-2.1;100.0;102930;;;;
2023/02/09 02:56:06;;;;;;;4.1;4.0;;;;;;;-2.1;100.0;102930;;;;
2023/02/09 02:57:04;;;;;;;4.1;4.0;;;;;;;-2.1;100.0;102930;;;;
2023/02/09 02:58:04;;;;;;;4.1;4.0;;;;;;;-2.1;100.0;102930;;;;
2023/02/09 02:59:02;;;;;;;4.1;4.0;;;;;;;-2.1;100.0;102940;;;;
2023/02/09 03:00:05;;;;;;;4.1;4.0;;;;;;;-2.1;100.0;102940;;;;
2023/02/09 03:01:01;;;;;;;4.1;4.0;;;;;;;-2.1;100.0;102930;;;;
2023/02/09 03:02:06;;;;;;;4.1;4.0;;;;;;;-2.1;100.0;102930;;;;
2023/02/09 03:03:04;;;;;;;4.1;4.0;;;;;;;-2.0;100.0;102930;;;;
2023/02/09 03:04:02;;;;;;;4.1;4.0;;;;;;;-2.0;100.0;102930;;;;
2023/02/09 03:05:01;;;;;;;4.1;4.0;;;;;;;-2.1;100.0;102930;;;;
2023/02/09 03:06:02;;;;;;;5.8;5.6;;;;;;;-2.1;100.0;102930;;;;
2023/02/09 03:07:03;;;;;;;5.8;5.6;;;;;;;-2.1;100.0;102920;;;;
2023/02/09 03:08:00;;;;;;;5.8;5.6;;;;;;;-2.1;100.0;102920;;;;
2023/02/09 03:09:00;;;;;;;5.8;5.6;;;;;;;-2.2;100.0;102920;;;;
2023/02/09 03:10:03;;;;;;;5.8;5.6;;;;;;;-2.2;100.0;102920;;;;
2023/02/09 03:11:00;;;;;;;5.8;5.6;;;;;;;-2.1;100.0;102920;;;;
2023/02/09 03:12:09;;;;;;;5.8;5.6;;;;;;;-2.1;100.0;102920;;;;
2023/02/09 03:13:00;;;;;;;5.8;5.6;;;;;;;-2.1;100.0;102920;;;;
2023/02/09 03:14:10;;;;;;;5.8;5.6;;;;;;;-2.1;100.0;102920;;;;
2023/02/09 03:15:07;;;;;;;5.8;5.6;;;;;;;-2.2;100.0;102930;;;;
2023/02/09 03:16:10;;;;;;;5.8;5.6;;;;;;;-2.2;100.0;102930;;;;
2023/02/09 03:17:10;;;;;;;5.8;5.6;;;;;;;-2.2;100.0;102920;;;;
2023/02/09 03:18:09;;;;;;;5.8;5.6;;;;;;;-2.2;100.0;102920;;;;
2023/02/09 03:19:05;;;;;;;5.8;5.6;;;;;;;-2.1;100.0;102930;;;;
2023/02/09 03:20:10;;;;;;;5.8;5.6;;;;;;;-2.1;100.0;102930;;;;
2023/02/09 03:21:08;;;;;;;5.8;5.6;;;;;;;-2.1;100.0;102930;;;;
2023/02/09 03:22:10;;;;;;;5.8;5.6;;;;;;;-2.1;100.0;102930;;;;
2023/02/09 03:23:01;;;;;;;5.8;5.6;;;;;;;-2.2;100.0;102930;;;;
2023/02/09 03:24:06;;;;;;;5.8;5.6;;;;;;;-2.2;100.0;102930;;;;
2023/02/09 03:25:06;;;;;;;5.8;5.6;;;;;;;-2.2;100.0;102930;;;;
2023/02/09 03:26:04;;;;;;;4.3;4.2;;;;;;;-2.2;100.0;102930;;;;
2023/02/09 03:27:08;;;;;;;4.3;4.2;;;;;;;-2.2;100.0;102930;;;;
2023/02/09 03:28:10;;;;;;;4.3;4.2;;;;;;;-2.2;100.0;102930;;;;
2023/02/09 03:29:01;;;;;;;4.3;4.2;;;;;;;-2.2;100.0;102930;;;;
2023/02/09 03:30:03;;;;;;;4.3;4.2;;;;;;;-2.2;100.0;102930;;;;
2023/02/09 03:31:02;;;;;;;4.3;4.2;;;;;;;-2.1;100.0;102930;;;;
2023/02/09 03:32:00;;;;;;;4.3;4.2;;;;;;;-2.1;100.0;102930;;;;
2023/02/09 03:33:02;;;;;;;4.3;4.2;;;;;;;-2.2;100.0;102930;;;;
2023/02/09 03:34:01;;;;;;;4.3;4.2;;;;;;;-2.2;100.0;102930;;;;
2023/02/09 03:35:01;;;;;;;4.3;4.2;;;;;;;-2.2;100.0;102920;;;;
2023/02/09 03:36:01;;;;;;;4.3;4.2;;;;;;;-2.2;100.0;102920;;;;
2023/02/09 03:37:00;;;;;;;4.3;4.2;;;;;;;-2.2;100.0;102930;;;;
2023/02/09 03:38:01;;;;;;;4.3;4.2;;;;;;;-2.2;100.0;102930;;;;
2023/02/09 03:39:01;;;;;;;4.3;4.2;;;;;;;-2.1;100.0;102920;;;;
2023/02/09 03:40:00;;;;;;;4.3;4.2;;;;;;;-2.1;100.0;102920;;;;
2023/02/09 03:41:00;;;;;;;4.3;4.2;;;;;;;-2.2;100.0;102920;;;;
2023/02/09 03:42:00;;;;;;;4.3;4.2;;;;;;;-2.2;100.0;102920;;;;
2023/02/09 03:43:00;;;;;;;4.3;4.2;;;;;;;-2.2;100.0;102920;;;;
2023/02/09 03:45:00;;;;;;;4.3;4.2;;;;;;;-2.3;100.0;102920;;;;
2023/02/09 03:46:00;;;;;;;4.6;4.5;;;;;;;-2.3;100.0;102920;;;;
2023/02/09 03:47:02;;;;;;;4.6;4.5;;;;;;;-2.3;100.0;102920;;;;
2023/02/09 03:48:00;;;;;;;4.6;4.5;;;;;;;-2.3;100.0;102920;;;;
2023/02/09 03:49:00;;;;;;;4.6;4.5;;;;;;;-2.2;100.0;102930;;;;
2023/02/09 03:50:00;;;;;;;4.6;4.5;;;;;;;-2.2;100.0;102930;;;;
2023/02/09 03:51:00;;;;;;;4.6;4.5;;;;;;;-2.3;100.0;102920;;;;
2023/02/09 03:52:01;;;;;;;4.6;4.5;;;;;;;-2.3;100.0;102920;;;;
2023/02/09 03:53:01;;;;;;;4.6;4.5;;;;;;;-2.2;100.0;102910;;;;
2023/02/09 03:54:00;;;;;;;4.6;4.5;;;;;;;-2.2;100.0;102910;;;;
2023/02/09 03:55:02;;;;;;;4.6;4.5;;;;;;;-2.4;100.0;102910;;;;
2023/02/09 03:56:00;;;;;;;4.6;4.5;;;;;;;-2.4;100.0;102910;;;;
2023/02/09 03:57:00;;;;;;;4.6;4.5;;;;;;;-2.3;100.0;102910;;;;
2023/02/09 03:58:00;;;;;;;4.6;4.5;;;;;;;-2.3;100.0;102910;;;;
2023/02/09 03:59:00;;;;;;;4.6;4.5;;;;;;;-2.3;100.0;102910;;;;
2023/02/09 04:00:00;;;;;;;4.6;4.5;;;;;;;-2.3;100.0;102910;;;;
2023/02/09 04:01:03;;;;;;;4.6;4.5;;;;;;;-2.3;100.0;102900;;;;
2023/02/09 04:02:00;;;;;;;4.6;4.5;;;;;;;-2.3;100.0;102900;;;;
2023/02/09 04:03:00;;;;;;;4.6;4.5;;;;;;;-2.3;100.0;102910;;;;
2023/02/09 04:04:01;;;;;;;4.6;4.5;;;;;;;-2.3;100.0;102910;;;;
2023/02/09 04:05:00;;;;;;;4.6;4.5;;;;;;;-2.4;100.0;102900;;;;
2023/02/09 04:06:01;;;;;;;4.2;4.1;;;;;;;-2.4;100.0;102900;;;;
2023/02/09 04:07:00;;;;;;;4.2;4.1;;;;;;;-2.3;100.0;102900;;;;
2023/02/09 04:08:00;;;;;;;4.2;4.1;;;;;;;-2.3;100.0;102900;;;;
2023/02/09 04:09:01;;;;;;;4.2;4.1;;;;;;;-2.2;100.0;102900;;;;
2023/02/09 04:10:00;;;;;;;4.2;4.1;;;;;;;-2.2;100.0;102900;;;;
2023/02/09 04:11:00;;;;;;;4.2;4.1;;;;;;;-2.3;100.0;102900;;;;
2023/02/09 04:12:00;;;;;;;4.2;4.1;;;;;;;-2.3;100.0;102900;;;;
2023/02/09 04:13:00;;;;;;;4.2;4.1;;;;;;;-2.3;100.0;102900;;;;
2023/02/09 04:14:00;;;;;;;4.2;4.1;;;;;;;-2.3;100.0;102900;;;;
2023/02/09 04:15:01;;;;;;;4.2;4.1;;;;;;;-2.4;100.0;102890;;;;
2023/02/09 04:16:00;;;;;;;4.2;4.1;;;;;;;-2.4;100.0;102890;;;;
2023/02/09 04:17:00;;;;;;;4.2;4.1;;;;;;;-2.3;100.0;102890;;;;
2023/02/09 04:18:00;;;;;;;4.2;4.1;;;;;;;-2.3;100.0;102890;;;;
2023/02/09 04:19:00;;;;;;;4.2;4.1;;;;;;;-2.2;100.0;102890;;;;
2023/02/09 04:20:00;;;;;;;4.2;4.1;;;;;;;-2.2;100.0;102890;;;;
2023/02/09 04:21:00;;;;;;;4.2;4.1;;;;;;;-2.3;100.0;102880;;;;
2023/02/09 04:22:00;;;;;;;4.2;4.1;;;;;;;-2.3;100.0;102880;;;;
2023/02/09 04:23:00;;;;;;;4.2;4.1;;;;;;;-2.3;100.0;102870;;;;
2023/02/09 04:24:00;;;;;;;4.2;4.1;;;;;;;-2.3;100.0;102870;;;;
2023/02/09 04:25:00;;;;;;;4.2;4.1;;;;;;;-2.5;100.0;102870;;;;
2023/02/09 04:26:00;;;;;;;4.5;4.4;;;;;;;-2.5;100.0;102870;;;;
2023/02/09 04:27:00;;;;;;;4.5;4.4;;;;;;;-2.4;100.0;102870;;;;
2023/02/09 04:28:01;;;;;;;4.5;4.4;;;;;;;-2.4;100.0;102870;;;;
2023/02/09 04:29:00;;;;;;;4.5;4.4;;;;;;;-2.4;100.0;102870;;;;
2023/02/09 04:30:00;;;;;;;4.5;4.4;;;;;;;-2.4;100.0;102870;;;;
2023/02/09 04:31:00;;;;;;;4.5;4.4;;;;;;;-2.4;100.0;102870;;;;
2023/02/09 04:32:00;;;;;;;4.5;4.4;;;;;;;-2.4;100.0;102870;;;;
2023/02/09 04:33:00;;;;;;;4.5;4.4;;;;;;;-2.2;100.0;102880;;;;
2023/02/09 04:34:00;;;;;;;4.5;4.4;;;;;;;-2.2;100.0;102880;;;;
2023/02/09 04:35:00;;;;;;;4.5;4.4;;;;;;;-2.4;100.0;102880;;;;
2023/02/09 04:36:01;;;;;;;4.5;4.4;;;;;;;-2.4;100.0;102880;;;;
2023/02/09 04:37:00;;;;;;;4.5;4.4;;;;;;;-2.3;100.0;102880;;;;
2023/02/09 04:38:00;;;;;;;4.5;4.4;;;;;;;-2.3;100.0;102880;;;;
2023/02/09 04:39:00;;;;;;;4.5;4.4;;;;;;;-2.2;100.0;102880;;;;
2023/02/09 04:40:00;;;;;;;4.5;4.4;;;;;;;-2.2;100.0;102880;;;;
2023/02/09 04:41:01;;;;;;;4.5;4.4;;;;;;;-2.3;100.0;102870;;;;
2023/02/09 04:42:00;;;;;;;4.5;4.4;;;;;;;-2.3;100.0;102870;;;;
2023/02/09 04:43:00;;;;;;;4.5;4.4;;;;;;;-2.3;100.0;102870;;;;
2023/02/09 04:44:00;;;;;;;4.5;4.4;;;;;;;-2.3;100.0;102870;;;;
2023/02/09 04:45:00;;;;;;;4.5;4.4;;;;;;;-2.3;100.0;102860;;;;
2023/02/09 04:46:00;;;;;;;4.7;4.6;;;;;;;-2.3;100.0;102860;;;;
2023/02/09 04:47:00;;;;;;;4.7;4.6;;;;;;;-2.4;100.0;102860;;;;
2023/02/09 04:48:00;;;;;;;4.7;4.6;;;;;;;-2.4;100.0;102860;;;;
2023/02/09 04:49:00;;;;;;;4.7;4.6;;;;;;;-2.4;100.0;102860;;;;
2023/02/09 04:50:00;;;;;;;4.7;4.6;;;;;;;-2.4;100.0;102860;;;;
2023/02/09 04:51:00;;;;;;;4.7;4.6;;;;;;;-2.5;100.0;102860;;;;
2023/02/09 04:52:00;;;;;;;4.7;4.6;;;;;;;-2.5;100.0;102860;;;;
2023/02/09 04:53:00;;;;;;;4.7;4.6;;;;;;;-2.4;100.0;102860;;;;
2023/02/09 04:54:00;;;;;;;4.7;4.6;;;;;;;-2.4;100.0;102860;;;;
2023/02/09 04:55:00;;;;;;;4.7;4.6;;;;;;;-2.3;100.0;102860;;;;
2023/02/09 04:56:00;;;;;;;4.7;4.6;;;;;;;-2.3;100.0;102860;;;;
2023/02/09 05:00:00;;;;;;;4.7;4.6;;;;;;;-2.3;100.0;102860;;;;
2023/02/09 05:01:01;;;;;;;4.7;4.6;;;;;;;-2.2;100.0;102870;;;;
2023/02/09 05:02:00;;;;;;;4.7;4.6;;;;;;;-2.2;100.0;102870;;;;
2023/02/09 05:03:00;;;;;;;4.7;4.6;;;;;;;-2.2;100.0;102870;;;;
2023/02/09 05:04:00;;;;;;;4.7;4.6;;;;;;;-2.2;100.0;102870;;;;
2023/02/09 05:05:00;;;;;;;4.7;4.6;;;;;;;-2.3;100.0;102870;;;;
2023/02/09 05:06:01;;;;;;;4.7;4.6;;;;;;;-2.3;100.0;102870;;;;
2023/02/09 05:07:00;;;;;;;4.7;4.6;;;;;;;-2.3;100.0;102880;;;;
2023/02/09 05:08:00;;;;;;;4.7;4.6;;;;;;;-2.3;100.0;102880;;;;
2023/02/09 05:09:00;;;;;;;4.7;4.6;;;;;;;-2.3;100.0;102880;;;;
2023/02/09 05:10:00;;;;;;;4.7;4.6;;;;;;;-2.3;100.0;102880;;;;
2023/02/09 05:11:00;;;;;;;4.7;4.6;;;;;;;-2.4;100.0;102880;;;;
2023/02/09 05:12:00;;;;;;;4.7;4.6;;;;;;;-2.4;100.0;102880;;;;
2023/02/09 05:13:00;;;;;;;4.7;4.6;;;;;;;-2.2;100.0;102890;;;;
2023/02/09 05:14:00;;;;;;;4.7;4.6;;;;;;;-2.2;100.0;102890;;;;
2023/02/09 05:15:00;;;;;;;4.7;4.6;;;;;;;-2.2;100.0;102880;;;;
2023/02/09 05:16:04;;;;;;;4.7;4.6;;;;;;;-2.2;100.0;102880;;;;
2023/02/09 05:17:00;;;;;;;4.7;4.6;;;;;;;-2.3;100.0;102880;;;;
2023/02/09 05:18:00;;;;;;;4.7;4.6;;;;;;;-2.3;100.0;102880;;;;
2023/02/09 05:19:00;;;;;;;4.7;4.6;;;;;;;-2.3;100.0;102880;;;;
2023/02/09 05:20:00;;;;;;;4.7;4.6;;;;;;;-2.3;100.0;102880;;;;
2023/02/09 05:21:00;;;;;;;4.7;4.6;;;;;;;-2.2;100.0;102880;;;;
2023/02/09 05:22:00;;;;;;;4.7;4.6;;;;;;;-2.2;100.0;102880;;;;
2023/02/09 05:23:00;;;;;;;4.7;4.6;;;;;;;-2.2;100.0;102890;;;;
2023/02/09 05:24:00;;;;;;;4.7;4.6;;;;;;;-2.2;100.0;102890;;;;
2023/02/09 05:25:00;;;;;;;4.5;4.4;;;;;;;-2.3;100.0;102890;;;;
2023/02/09 05:26:00;;;;;;;4.5;4.4;;;;;;;-2.3;100.0;102890;;;;
2023/02/09 05:27:00;;;;;;;4.5;4.4;;;;;;;-2.4;100.0;102880;;;;
2023/02/09 05:28:00;;;;;;;4.5;4.4;;;;;;;-2.4;100.0;102880;;;;
2023/02/09 05:29:00;;;;;;;4.5;4.4;;;;;;;-2.3;100.0;102880;;;;
2023/02/09 05:30:00;;;;;;;4.5;4.4;;;;;;;-2.3;100.0;102880;;;;
2023/02/09 05:31:00;;;;;;;4.5;4.4;;;;;;;-2.3;100.0;102890;;;;
2023/02/09 05:32:00;;;;;;;4.5;4.4;;;;;;;-2.3;100.0;102890;;;;
2023/02/09 05:33:01;;;;;;;4.5;4.4;;;;;;;-2.4;100.0;102890;;;;
2023/02/09 05:34:00;;;;;;;4.5;4.4;;;;;;;-2.4;100.0;102890;;;;
2023/02/09 05:35:00;;;;;;;4.5;4.4;;;;;;;-2.4;100.0;102890;;;;
2023/02/09 05:36:02;;;;;;;4.5;4.4;;;;;;;-2.4;100.0;102890;;;;
2023/02/09 05:37:00;;;;;;;4.5;4.4;;;;;;;-2.3;100.0;102900;;;;
2023/02/09 05:38:00;;;;;;;4.5;4.4;;;;;;;-2.3;100.0;102900;;;;
2023/02/09 05:39:00;;;;;;;4.5;4.4;;;;;;;-2.3;100.0;102900;;;;
2023/02/09 05:40:00;;;;;;;4.5;4.4;;;;;;;-2.3;100.0;102900;;;;
2023/02/09 05:41:05;;;;;;;4.5;4.4;;;;;;;-2.3;100.0;102890;;;;
2023/02/09 05:43:02;;;;;;;4.5;4.4;;;;;;;-2.4;100.0;102900;;;;
2023/02/09 05:44:00;;;;;;;4.5;4.4;;;;;;;-2.4;100.0;102900;;;;
2023/02/09 05:45:00;;;;;;;4.4;4.3;;;;;;;-2.4;100.0;102900;;;;
2023/02/09 05:46:00;;;;;;;4.4;4.3;;;;;;;-2.4;100.0;102900;;;;
2023/02/09 05:47:00;;;;;;;4.4;4.3;;;;;;;-2.4;100.0;102900;;;;
2023/02/09 05:48:00;;;;;;;4.4;4.3;;;;;;;-2.4;100.0;102900;;;;
2023/02/09 05:49:00;;;;;;;4.4;4.3;;;;;;;-2.4;100.0;102900;;;;
2023/02/09 05:50:00;;;;;;;4.4;4.3;;;;;;;-2.4;100.0;102900;;;;
2023/02/09 05:51:00;;;;;;;4.4;4.3;;;;;;;-2.3;100.0;102900;;;;
2023/02/09 05:52:00;;;;;;;4.4;4.3;;;;;;;-2.3;100.0;102900;;;;
2023/02/09 05:53:00;;;;;;;4.4;4.3;;;;;;;-2.3;100.0;102910;;;;
2023/02/09 05:54:00;;;;;;;4.4;4.3;;;;;;;-2.3;100.0;102910;;;;
2023/02/09 05:55:00;;;;;;;4.4;4.3;;;;;;;-2.4;100.0;102910;;;;
2023/02/09 05:56:00;;;;;;;4.4;4.3;;;;;;;-2.4;100.0;102910;;;;
2023/02/09 05:57:01;;;;;;;4.4;4.3;;;;;;;-2.5;100.0;102910;;;;
2023/02/09 05:58:00;;;;;;;4.4;4.3;;;;;;;-2.5;100.0;102910;;;;
2023/02/09 05:59:03;;;;;;;4.4;4.3;;;;;;;-2.4;100.0;102910;;;;
2023/02/09 06:00:00;;;;;;;4.4;4.3;;;;;;;-2.4;100.0;102910;;;;
2023/02/09 06:01:00;;;;;;;4.4;4.3;;;;;;;-2.4;100.0;102900;;;;
2023/02/09 06:02:01;;;;;;;4.4;4.3;;;;;;;-2.4;100.0;102900;;;;
2023/02/09 06:03:01;;;;;;;4.4;4.3;;;;;;;-2.5;100.0;102900;;;;
2023/02/09 06:04:00;;;;;;;4.4;4.3;;;;;;;-2.5;100.0;102900;;;;
2023/02/09 06:05:00;;;;;;;4.3;4.2;;;;;;;-2.4;100.0;102900;;;;
2023/02/09 06:06:00;;;;;;;4.3;4.2;;;;;;;-2.4;100.0;102900;;;;
2023/02/09 06:07:00;;;;;;;4.3;4.2;;;;;;;-2.4;100.0;102900;;;;
2023/02/09 06:08:00;;;;;;;4.3;4.2;;;;;;;-2.4;100.0;102900;;;;
2023/02/09 06:09:00;;;;;;;4.3;4.2;;;;;;;-2.4;100.0;102890;;;;
2023/02/09 06:10:00;;;;;;;4.3;4.2;;;;;;;-2.4;100.0;102890;;;;
2023/02/09 06:11:01;;;;;;;4.3;4.2;;;;;;;-2.4;100.0;102890;;;;
2023/02/09 06:12:00;;;;;;;4.3;4.2;;;;;;;-2.4;100.0;102890;;;;
2023/02/09 06:13:00;;;;;;;4.3;4.2;;;;;;;-2.4;100.0;102890;;;;
2023/02/09 06:14:00;;;;;;;4.3;4.2;;;;;;;-2.4;100.0;102890;;;;
2023/02/09 06:15:00;;;;;;;4.3;4.2;;;;;;;-2.5;100.0;102890;;;;
2023/02/09 06:16:00;;;;;;;4.3;4.2;;;;;;;-2.5;100.0;102890;;;;
2023/02/09 06:17:00;;;;;;;4.3;4.2;;;;;;;-2.4;100.0;102890;;;;
2023/02/09 06:18:00;;;;;;;4.3;4.2;;;;;;;-2.4;100.0;102890;;;;
2023/02/09 06:19:00;;;;;;;4.3;4.2;;;;;;;-2.5;100.0;102870;;;;
2023/02/09 06:20:00;;;;;;;4.3;4.2;;;;;;;-2.5;100.0;102870;;;;
2023/02/09 06:21:00;;;;;;;4.3;4.2;;;;;;;-2.5;100.0;102870;;;;
2023/02/09 06:22:00;;;;;;;4.3;4.2;;;;;;;-2.5;100.0;102870;;;;
2023/02/09 06:23:00;;;;;;;4.3;4.2;;;;;;;-2.5;100.0;102870;;;;
2023/02/09 06:24:00;;;;;;;4.3;4.2;;;;;;;-2.5;100.0;102870;;;;
2023/02/09 06:25:00;;;;;;;4.9;4.7;;;;;;;-2.4;100.0;102870;;;;
2023/02/09 06:26:04;;;;;;;4.9;4.7;;;;;;;-2.4;100.0;102870;;;;
2023/02/09 06:27:00;;;;;;;4.9;4.7;;;;;;;-2.4;100.0;102880;;;;
2023/02/09 06:28:00;;;;;;;4.9;4.7;;;;;;;-2.4;100.0;102880;;;;
2023/02/09 06:29:01;;;;;;;4.9;4.7;;;;;;;-2.4;100.0;102880;;;;
2023/02/09 06:30:00;;;;;;;4.9;4.7;;;;;;;-2.4;100.0;102880;;;;